Time;durP1;ratioP1;P1;durP2;ratioP2;P2;SDS_P1;SDS_P2;PMS_P1;PMS_P2;Temp;Humidity;BMP_temperature;BMP_pressure;BME280_temperature;BME280_humidity;BME280_pressure;Samples;Min_cycle;Max_cycle;Signal;HPM_P1;HPM_P2
2023/05/26 00:01:14;;;;;;;;;;;;;;;18.63;nan;102538.41;5039287;28;20067;-81
2023/05/26 00:03:44;;;;;;;;;;;;;;;18.58;nan;102535.63;5044986;28;20456;-81
2023/05/26 00:06:10;;;;;;;;;;;;;;;18.50;nan;102539.66;5039213;28;20326;-81
2023/05/26 00:08:36;;;;;;;;;;;;;;;18.46;nan;102538.50;5042031;28;19917;-81
2023/05/26 00:11:02;;;;;;;;;;;;;;;18.39;nan;102538.72;5044122;28;19970;-80
2023/05/26 00:13:27;;;;;;;;;;;;;;;18.35;nan;102542.22;5043756;28;20351;-80
2023/05/26 00:15:52;;;;;;;;;;;;;;;18.30;nan;102537.53;5044739;28;19991;-81
2023/05/26 00:18:19;;;;;;;;;;;;;;;18.26;nan;102536.41;5043358;28;19931;-81
2023/05/26 00:20:45;;;;;;;;;;;;;;;18.21;nan;102541.78;5044514;28;19917;-80
2023/05/26 00:23:10;;;;;;;;;;;;;;;18.18;nan;102541.50;5048403;28;20001;-80
2023/05/26 00:25:35;;;;;;;;;;;;;;;18.12;nan;102536.00;5050558;28;20406;-80
2023/05/26 00:28:01;;;;;;;;;;;;;;;18.06;nan;102528.88;5046029;28;19921;-80
2023/05/26 00:30:27;;;;;;;;;;;;;;;18.02;nan;102529.66;5044866;28;19916;-81
2023/05/26 00:32:52;;;;;;;;;;;;;;;17.97;nan;102526.91;5048184;28;20380;-80
2023/05/26 00:35:18;;;;;;;;;;;;;;;17.93;nan;102533.88;5049628;28;20314;-80
2023/05/26 00:37:43;;;;;;;;;;;;;;;17.88;nan;102534.66;5047802;28;19920;-80
2023/05/26 00:40:09;;;;;;;;;;;;;;;17.86;nan;102534.09;5045069;28;20008;-80
2023/05/26 00:42:34;;;;;;;;;;;;;;;17.85;nan;102539.78;5049624;28;20008;-80
2023/05/26 00:44:59;;;;;;;;;;;;;;;17.79;nan;102526.16;5045363;28;19917;-81
2023/05/26 00:47:25;;;;;;;;;;;;;;;17.72;nan;102536.34;5047979;28;19967;-80
2023/05/26 00:49:51;;;;;;;;;;;;;;;17.70;nan;102548.53;5048132;28;19924;-80
2023/05/26 00:52:17;;;;;;;;;;;;;;;17.68;nan;102542.53;5042468;28;19924;-80
2023/05/26 00:54:42;;;;;;;;;;;;;;;17.64;nan;102546.81;5045198;28;21334;-80
2023/05/26 00:57:08;;;;;;;;;;;;;;;17.63;nan;102540.56;5047535;28;20001;-80
2023/05/26 00:59:34;;;;;;;;;;;;;;;17.62;nan;102548.94;5046594;28;20422;-81
2023/05/26 01:02:00;;;;;;;;;;;;;;;17.60;nan;102557.34;5042173;28;20380;-80
2023/05/26 01:04:25;;;;;;;;;;;;;;;17.58;nan;102553.22;5043195;28;20331;-81
2023/05/26 01:06:52;;;;;;;;;;;;;;;17.53;nan;102552.06;5048226;28;19921;-81
2023/05/26 01:09:18;;;;;;;;;;;;;;;17.51;nan;102547.97;5047832;28;20004;-80
2023/05/26 01:11:52;;;;;;;;;;;;;;;17.49;nan;102550.13;5044880;28;19917;-80
2023/05/26 01:14:22;;;;;;;;;;;;;;;17.45;nan;102551.69;5040285;28;19917;-80
2023/05/26 01:16:52;;;;;;;;;;;;;;;17.40;nan;102543.47;5046661;28;20012;-81
2023/05/26 01:19:42;;;;;;;;;;;;;;;17.38;nan;102542.91;5045950;28;19916;-80
2023/05/26 01:22:23;;;;;;;;;;;;;;;17.36;nan;102539.63;5043800;28;19999;-81
2023/05/26 01:25:05;;;;;;;;;;;;;;;17.32;nan;102543.94;5042673;28;20071;-81
2023/05/26 01:27:39;;;;;;;;;;;;;;;17.25;nan;102535.16;5043866;28;20056;-81
2023/05/26 01:30:05;;;;;;;;;;;;;;;17.18;nan;102541.56;5042168;28;20444;-81
2023/05/26 01:32:30;;;;;;;;;;;;;;;17.16;nan;102540.19;5046758;28;20075;-80
2023/05/26 01:34:56;;;;;;;;;;;;;;;17.12;nan;102542.56;5043163;28;19985;-80
2023/05/26 01:37:21;;;;;;;;;;;;;;;17.11;nan;102543.63;5040250;28;19969;-80
2023/05/26 01:39:47;;;;;;;;;;;;;;;17.09;nan;102545.78;5047012;28;19933;-80
2023/05/26 01:42:16;;;;;;;;;;;;;;;17.09;nan;102542.25;5042324;28;19920;-80
2023/05/26 01:44:45;;;;;;;;;;;;;;;17.06;nan;102545.47;5045568;28;20308;-81
2023/05/26 01:47:11;;;;;;;;;;;;;;;17.02;nan;102545.09;5042058;28;19929;-81
2023/05/26 01:49:39;;;;;;;;;;;;;;;17.02;nan;102542.41;5045456;28;19944;-81
2023/05/26 01:52:07;;;;;;;;;;;;;;;17.00;nan;102543.72;5044327;28;19917;-81
2023/05/26 01:54:34;;;;;;;;;;;;;;;16.97;nan;102539.63;5047698;28;19927;-80
2023/05/26 01:57:00;;;;;;;;;;;;;;;16.96;nan;102548.81;5041065;28;19917;-80
2023/05/26 01:59:26;;;;;;;;;;;;;;;16.95;nan;102551.78;5037646;28;19956;-81
2023/05/26 02:01:51;;;;;;;;;;;;;;;16.91;nan;102546.84;5044693;28;19979;-80
2023/05/26 02:04:16;;;;;;;;;;;;;;;16.89;nan;102548.16;5043791;28;19921;-80
2023/05/26 02:06:42;;;;;;;;;;;;;;;16.87;nan;102552.97;5046923;28;19920;-80
2023/05/26 02:09:07;;;;;;;;;;;;;;;16.84;nan;102545.34;5042479;28;20075;-80
2023/05/26 02:11:33;;;;;;;;;;;;;;;16.80;nan;102547.75;5045153;28;19917;-81
2023/05/26 02:13:59;;;;;;;;;;;;;;;16.75;nan;102549.56;5047401;28;19973;-81
2023/05/26 02:16:27;;;;;;;;;;;;;;;16.71;nan;102553.81;5046978;28;20369;-81
2023/05/26 02:18:53;;;;;;;;;;;;;;;16.64;nan;102556.63;5041903;28;19927;-81
2023/05/26 02:21:18;;;;;;;;;;;;;;;16.58;nan;102555.75;5036251;28;20301;-80
2023/05/26 02:23:44;;;;;;;;;;;;;;;16.52;nan;102559.44;5047685;28;19924;-81
2023/05/26 02:26:09;;;;;;;;;;;;;;;16.47;nan;102553.09;5046152;28;19928;-80
2023/05/26 02:28:35;;;;;;;;;;;;;;;16.41;nan;102554.91;5046980;28;20285;-81
2023/05/26 02:31:00;;;;;;;;;;;;;;;16.37;nan;102553.75;5041279;28;19921;-80
2023/05/26 02:33:26;;;;;;;;;;;;;;;16.33;nan;102558.78;5039026;28;20385;-80
2023/05/26 02:35:51;;;;;;;;;;;;;;;16.29;nan;102554.13;5046041;28;19920;-80
2023/05/26 02:38:17;;;;;;;;;;;;;;;16.28;nan;102552.47;5057984;28;20338;-80
2023/05/26 02:40:42;;;;;;;;;;;;;;;16.26;nan;102557.31;5044629;28;19924;-81
2023/05/26 02:43:08;;;;;;;;;;;;;;;16.26;nan;102557.31;5041841;28;19956;-81
2023/05/26 02:45:33;;;;;;;;;;;;;;;16.24;nan;102557.56;5041270;28;19920;-80
2023/05/26 02:47:58;;;;;;;;;;;;;;;16.21;nan;102557.22;5045250;28;20182;-80
2023/05/26 02:50:24;;;;;;;;;;;;;;;16.17;nan;102565.00;5041590;28;20407;-80
2023/05/26 02:52:49;;;;;;;;;;;;;;;16.13;nan;102563.00;5043101;28;20396;-80
2023/05/26 02:55:15;;;;;;;;;;;;;;;16.13;nan;102563.00;5041188;28;20415;-80
2023/05/26 02:57:40;;;;;;;;;;;;;;;16.10;nan;102558.09;5045636;28;20292;-80
2023/05/26 03:00:12;;;;;;;;;;;;;;;16.08;nan;102571.03;5044979;28;20380;-80
2023/05/26 03:02:37;;;;;;;;;;;;;;;16.06;nan;102565.03;5044590;28;19921;-80
2023/05/26 03:05:04;;;;;;;;;;;;;;;16.06;nan;102563.16;5040901;28;20315;-80
2023/05/26 03:07:29;;;;;;;;;;;;;;;16.06;nan;102565.03;5043142;28;20568;-81
2023/05/26 03:09:54;;;;;;;;;;;;;;;16.07;nan;102558.56;5042748;28;20007;-80
2023/05/26 03:12:20;;;;;;;;;;;;;;;16.03;nan;102566.34;5043399;28;19927;-80
2023/05/26 03:14:45;;;;;;;;;;;;;;;16.01;nan;102571.19;5045071;28;20266;-80
2023/05/26 03:17:11;;;;;;;;;;;;;;;16.00;nan;102573.06;5042398;28;19921;-80
2023/05/26 03:19:36;;;;;;;;;;;;;;;16.00;nan;102575.75;5045434;28;20347;-80
2023/05/26 03:22:01;;;;;;;;;;;;;;;16.04;nan;102578.81;5043182;28;20178;-80
2023/05/26 03:24:27;;;;;;;;;;;;;;;16.06;nan;102583.97;5058278;28;19956;-80
2023/05/26 03:26:52;;;;;;;;;;;;;;;16.06;nan;102586.66;5039453;28;19928;-80
2023/05/26 03:29:18;;;;;;;;;;;;;;;16.02;nan;102583.63;5041679;28;19956;-80
2023/05/26 03:31:43;;;;;;;;;;;;;;;16.02;nan;102584.44;5044495;28;19936;-80
2023/05/26 03:34:08;;;;;;;;;;;;;;;16.01;nan;102596.31;5044721;28;21100;-80
2023/05/26 03:36:36;;;;;;;;;;;;;;;16.02;nan;102592.56;5042761;28;19960;-80
2023/05/26 03:39:03;;;;;;;;;;;;;;;16.05;nan;102598.56;5038779;28;19917;-80
2023/05/26 03:41:29;;;;;;;;;;;;;;;16.06;nan;102590.19;5044261;28;20384;-80
2023/05/26 03:43:54;;;;;;;;;;;;;;;16.09;nan;102592.41;5044832;28;20143;-80
2023/05/26 03:46:20;;;;;;;;;;;;;;;16.10;nan;102595.94;5045367;28;19975;-80
2023/05/26 03:48:45;;;;;;;;;;;;;;;16.12;nan;102596.50;5039515;28;20293;-80
2023/05/26 03:51:10;;;;;;;;;;;;;;;16.10;nan;102585.94;5040570;28;19944;-80
2023/05/26 03:53:36;;;;;;;;;;;;;;;16.10;nan;102595.94;5048715;28;20007;-80
2023/05/26 03:56:03;;;;;;;;;;;;;;;16.14;nan;102591.69;5048939;28;19925;-81
2023/05/26 03:58:28;;;;;;;;;;;;;;;16.18;nan;102592.88;5046041;28;19978;-80
2023/05/26 04:00:55;;;;;;;;;;;;;;;16.19;nan;102598.03;5043092;28;19920;-80
2023/05/26 04:03:21;;;;;;;;;;;;;;;16.23;nan;102595.66;5046429;28;19917;-80
2023/05/26 04:05:47;;;;;;;;;;;;;;;16.29;nan;102597.41;5046635;28;20106;-80
2023/05/26 04:08:12;;;;;;;;;;;;;;;16.33;nan;102595.84;5049190;28;20634;-80
2023/05/26 04:10:37;;;;;;;;;;;;;;;16.39;nan;102594.91;5046327;28;20383;-81
2023/05/26 04:13:03;;;;;;;;;;;;;;;16.42;nan;102586.28;5043273;28;19978;-81
2023/05/26 04:15:28;;;;;;;;;;;;;;;16.47;nan;102596.38;5050054;28;19982;-80
2023/05/26 04:17:53;;;;;;;;;;;;;;;16.53;nan;102596.25;5047530;28;19971;-81
2023/05/26 04:20:19;;;;;;;;;;;;;;;16.54;nan;102597.88;5045454;28;19963;-80
2023/05/26 04:22:45;;;;;;;;;;;;;;;16.62;nan;102599.38;5044362;28;19916;-80
2023/05/26 04:25:11;;;;;;;;;;;;;;;16.69;nan;102604.66;5042861;28;19928;-80
2023/05/26 04:27:37;;;;;;;;;;;;;;;16.74;nan;102604.75;5043104;28;19928;-80
2023/05/26 04:30:03;;;;;;;;;;;;;;;16.77;nan;102606.97;5044754;28;19917;-80
2023/05/26 04:32:29;;;;;;;;;;;;;;;16.81;nan;102608.13;5043991;28;19924;-80
2023/05/26 04:34:55;;;;;;;;;;;;;;;16.87;nan;102612.53;5044137;28;20015;-80
2023/05/26 04:37:21;;;;;;;;;;;;;;;16.93;nan;102606.16;5046400;28;19921;-80
2023/05/26 04:39:46;;;;;;;;;;;;;;;16.94;nan;102613.22;5045540;28;19926;-81
2023/05/26 04:42:12;;;;;;;;;;;;;;;16.91;nan;102613.72;5045324;28;19921;-80
2023/05/26 04:44:38;;;;;;;;;;;;;;;16.91;nan;102617.25;5043933;28;19924;-80
2023/05/26 04:47:03;;;;;;;;;;;;;;;16.95;nan;102614.88;5043689;28;20220;-80
2023/05/26 04:49:29;;;;;;;;;;;;;;;16.99;nan;102616.00;5046725;28;19929;-80
2023/05/26 04:51:58;;;;;;;;;;;;;;;17.03;nan;102617.16;5044019;28;19920;-80
2023/05/26 04:54:24;;;;;;;;;;;;;;;17.09;nan;102624.31;5042439;28;19925;-81
2023/05/26 04:56:49;;;;;;;;;;;;;;;17.17;nan;102623.06;5042900;28;20304;-80
2023/05/26 04:59:17;;;;;;;;;;;;;;;17.26;nan;102620.78;5045582;28;20288;-80
2023/05/26 05:01:44;;;;;;;;;;;;;;;17.30;nan;102630.88;5044969;28;19956;-81
2023/05/26 05:04:09;;;;;;;;;;;;;;;17.38;nan;102629.63;5042275;28;20795;-80
2023/05/26 05:06:35;;;;;;;;;;;;;;;17.48;nan;102635.19;5045193;28;19932;-80
2023/05/26 05:09:01;;;;;;;;;;;;;;;17.55;nan;102638.56;5044137;28;19916;-80
2023/05/26 05:11:26;;;;;;;;;;;;;;;17.68;nan;102634.72;5044609;28;19959;-80
2023/05/26 05:13:51;;;;;;;;;;;;;;;17.79;nan;102629.19;5044972;28;20352;-80
2023/05/26 05:16:16;;;;;;;;;;;;;;;17.92;nan;102638.00;5042992;28;20365;-80
2023/05/26 05:18:42;;;;;;;;;;;;;;;18.02;nan;102630.00;5046705;28;19916;-80
2023/05/26 05:21:07;;;;;;;;;;;;;;;18.10;nan;102633.09;5042959;28;20114;-81
2023/05/26 05:23:34;;;;;;;;;;;;;;;18.22;nan;102632.97;5042269;28;19925;-80
2023/05/26 05:25:59;;;;;;;;;;;;;;;18.34;nan;102627.41;5044013;28;19921;-82
2023/05/26 05:28:25;;;;;;;;;;;;;;;18.45;nan;102625.59;5043745;28;21309;-81
2023/05/26 05:30:50;;;;;;;;;;;;;;;18.51;nan;102633.56;5043587;28;19925;-82
2023/05/26 05:33:15;;;;;;;;;;;;;;;18.53;nan;102642.28;5043833;28;20013;-82
2023/05/26 05:35:41;;;;;;;;;;;;;;;18.55;nan;102648.25;5046119;28;20004;-81
2023/05/26 05:38:06;;;;;;;;;;;;;;;18.59;nan;102640.44;5043659;28;20019;-81
2023/05/26 05:40:31;;;;;;;;;;;;;;;18.64;nan;102649.47;5047933;28;19921;-81
2023/05/26 05:42:57;;;;;;;;;;;;;;;18.75;nan;102646.88;5048491;28;19920;-81
2023/05/26 05:45:22;;;;;;;;;;;;;;;18.85;nan;102657.81;5047678;28;19926;-81
2023/05/26 05:47:47;;;;;;;;;;;;;;;18.88;nan;102655.41;5046520;28;20377;-80
2023/05/26 05:50:13;;;;;;;;;;;;;;;18.95;nan;102656.00;5048537;28;19920;-80
2023/05/26 05:52:38;;;;;;;;;;;;;;;19.00;nan;102653.34;5046126;28;19929;-81
2023/05/26 05:55:04;;;;;;;;;;;;;;;19.12;nan;102650.47;5045934;28;20008;-81
2023/05/26 05:57:29;;;;;;;;;;;;;;;19.18;nan;102654.84;5041952;28;19924;-80
2023/05/26 05:59:54;;;;;;;;;;;;;;;19.24;nan;102655.72;5048344;28;19924;-81
2023/05/26 06:02:20;;;;;;;;;;;;;;;19.30;nan;102652.78;5046009;28;19963;-81
2023/05/26 06:04:45;;;;;;;;;;;;;;;19.40;nan;102657.47;5048103;28;20008;-81
2023/05/26 06:07:10;;;;;;;;;;;;;;;19.51;nan;102661.88;5047016;28;20020;-80
2023/05/26 06:09:36;;;;;;;;;;;;;;;19.55;nan;102662.22;5044418;28;20008;-81
2023/05/26 06:12:01;;;;;;;;;;;;;;;19.61;nan;102664.72;5045572;28;20067;-80
2023/05/26 06:14:27;;;;;;;;;;;;;;;19.77;nan;102662.09;5045969;28;19927;-82
2023/05/26 06:16:52;;;;;;;;;;;;;;;19.91;nan;102666.78;5046949;28;20441;-80
2023/05/26 06:19:17;;;;;;;;;;;;;;;20.03;nan;102666.56;5046057;28;19917;-81
2023/05/26 06:21:43;;;;;;;;;;;;;;;20.11;nan;102676.16;5047445;28;19917;-82
2023/05/26 06:24:08;;;;;;;;;;;;;;;20.15;nan;102679.97;5045780;28;19978;-82
2023/05/26 06:26:33;;;;;;;;;;;;;;;20.26;nan;102683.53;5046853;28;19928;-82
2023/05/26 06:28:59;;;;;;;;;;;;;;;20.33;nan;102678.69;5046830;28;20147;-82
2023/05/26 06:31:25;;;;;;;;;;;;;;;20.45;nan;102684.72;5045943;28;19921;-81
2023/05/26 06:33:51;;;;;;;;;;;;;;;20.55;nan;102690.22;5046018;28;20427;-81
2023/05/26 06:36:16;;;;;;;;;;;;;;;20.68;nan;102695.16;5046879;28;19927;-81
2023/05/26 06:38:41;;;;;;;;;;;;;;;20.76;nan;102683.72;5046062;28;19924;-81
2023/05/26 06:41:07;;;;;;;;;;;;;;;20.85;nan;102685.94;5047289;28;19924;-82
2023/05/26 06:43:32;;;;;;;;;;;;;;;20.88;nan;102683.47;5047065;28;20350;-82
2023/05/26 06:45:57;;;;;;;;;;;;;;;21.03;nan;102688.13;5046209;28;19920;-81
2023/05/26 06:48:23;;;;;;;;;;;;;;;21.12;nan;102686.47;5046930;28;19963;-82
2023/05/26 06:50:48;;;;;;;;;;;;;;;21.25;nan;102685.16;5044624;28;19983;-81
2023/05/26 06:53:13;;;;;;;;;;;;;;;21.39;nan;102683.53;5045236;28;20410;-81
2023/05/26 06:55:39;;;;;;;;;;;;;;;21.63;nan;102681.03;5046459;28;20442;-82
2023/05/26 06:58:04;;;;;;;;;;;;;;;21.83;nan;102694.63;5045479;28;19917;-81
2023/05/26 07:00:31;;;;;;;;;;;;;;;21.97;nan;102689.41;5044249;28;20281;-81
2023/05/26 07:02:56;;;;;;;;;;;;;;;22.08;nan;102684.72;5046691;28;19920;-81
2023/05/26 07:05:21;;;;;;;;;;;;;;;22.16;nan;102690.44;5045612;28;19925;-81
2023/05/26 07:07:47;;;;;;;;;;;;;;;22.26;nan;102692.31;5045180;28;19964;-82
2023/05/26 07:10:12;;;;;;;;;;;;;;;22.33;nan;102692.84;5045465;28;19920;-82
2023/05/26 07:12:37;;;;;;;;;;;;;;;22.49;nan;102696.31;5044176;28;20683;-81
2023/05/26 07:15:03;;;;;;;;;;;;;;;22.66;nan;102698.69;5046637;28;19917;-82
2023/05/26 07:17:28;;;;;;;;;;;;;;;22.77;nan;102702.97;5044796;28;19924;-81
2023/05/26 07:19:54;;;;;;;;;;;;;;;22.82;nan;102714.72;5046096;28;20300;-81
2023/05/26 07:22:19;;;;;;;;;;;;;;;22.81;nan;102712.25;5046538;28;20001;-81
2023/05/26 07:24:44;;;;;;;;;;;;;;;22.80;nan;102707.84;5045530;28;19916;-81
2023/05/26 07:27:10;;;;;;;;;;;;;;;22.85;nan;102710.63;5043878;28;19929;-81
2023/05/26 07:29:37;;;;;;;;;;;;;;;22.93;nan;102710.00;5042942;28;20003;-81
2023/05/26 07:32:02;;;;;;;;;;;;;;;23.00;nan;102713.25;5046563;28;19916;-81
2023/05/26 07:34:28;;;;;;;;;;;;;;;23.02;nan;102727.44;5046604;28;19921;-81
2023/05/26 07:36:53;;;;;;;;;;;;;;;23.08;nan;102720.81;5046039;28;19916;-81
2023/05/26 07:39:18;;;;;;;;;;;;;;;23.09;nan;102722.47;5044930;28;19921;-80
2023/05/26 07:41:44;;;;;;;;;;;;;;;23.19;nan;102721.56;5046405;28;20454;-80
2023/05/26 07:44:09;;;;;;;;;;;;;;;23.24;nan;102721.53;5045095;28;21007;-80
2023/05/26 07:46:34;;;;;;;;;;;;;;;23.35;nan;102723.09;5045199;28;20281;-79
2023/05/26 07:49:00;;;;;;;;;;;;;;;23.49;nan;102724.03;5043716;28;19974;-80
2023/05/26 07:51:25;;;;;;;;;;;;;;;23.59;nan;102725.91;5045028;28;19925;-80
2023/05/26 07:53:50;;;;;;;;;;;;;;;23.63;nan;102718.75;5045475;28;19978;-80
2023/05/26 07:56:16;;;;;;;;;;;;;;;23.74;nan;102717.53;5045467;28;19960;-80
2023/05/26 07:58:41;;;;;;;;;;;;;;;23.74;nan;102717.53;5044418;28;19947;-80
2023/05/26 08:01:07;;;;;;;;;;;;;;;23.68;nan;102710.47;5043972;28;19917;-80
2023/05/26 08:03:32;;;;;;;;;;;;;;;23.66;nan;102715.41;5045091;28;19924;-80
2023/05/26 08:05:58;;;;;;;;;;;;;;;23.65;nan;102713.78;5044613;28;19917;-81
2023/05/26 08:08:23;;;;;;;;;;;;;;;23.67;nan;102710.75;5046056;28;20327;-80
2023/05/26 08:10:49;;;;;;;;;;;;;;;23.72;nan;102710.72;5045297;28;20462;-80
2023/05/26 08:13:14;;;;;;;;;;;;;;;23.89;nan;102708.38;5045672;28;19917;-81
2023/05/26 08:15:39;;;;;;;;;;;;;;;24.05;nan;102709.78;5044689;28;19916;-80
2023/05/26 08:18:05;;;;;;;;;;;;;;;24.16;nan;102706.94;5043840;28;20007;-79
2023/05/26 08:20:30;;;;;;;;;;;;;;;24.31;nan;102710.34;5042496;28;19975;-80
2023/05/26 08:22:58;;;;;;;;;;;;;;;24.37;nan;102709.16;5046043;28;20276;-80
2023/05/26 08:25:24;;;;;;;;;;;;;;;24.26;nan;102713.13;5044837;28;19935;-80
2023/05/26 08:27:49;;;;;;;;;;;;;;;24.13;nan;102718.50;5042877;28;19929;-80
2023/05/26 08:30:14;;;;;;;;;;;;;;;24.10;nan;102708.94;5043910;28;19943;-81
2023/05/26 08:32:40;;;;;;;;;;;;;;;24.18;nan;102705.53;5044785;28;20296;-80
2023/05/26 08:35:05;;;;;;;;;;;;;;;24.29;nan;102704.34;5045700;28;19923;-80
2023/05/26 08:37:31;;;;;;;;;;;;;;;24.21;nan;102709.63;5043498;28;20262;-80
2023/05/26 08:39:57;;;;;;;;;;;;;;;24.17;nan;102706.66;5048202;28;19971;-80
2023/05/26 08:42:26;;;;;;;;;;;;;;;24.18;nan;102705.53;5047436;28;19929;-81
2023/05/26 08:44:51;;;;;;;;;;;;;;;24.24;nan;102703.56;5048507;28;19921;-81
2023/05/26 08:47:16;;;;;;;;;;;;;;;24.31;nan;102696.66;5048977;28;19924;-81
2023/05/26 08:49:46;;;;;;;;;;;;;;;24.45;nan;102698.66;5046366;28;20416;-81
2023/05/26 08:52:16;;;;;;;;;;;;;;;24.62;nan;102709.94;5049147;28;19924;-80
2023/05/26 08:54:42;;;;;;;;;;;;;;;24.76;nan;102710.81;5049304;28;19917;-80
2023/05/26 08:57:08;;;;;;;;;;;;;;;24.72;nan;102709.78;5048711;28;20328;-80
2023/05/26 08:59:35;;;;;;;;;;;;;;;24.65;nan;102715.63;5045224;28;19924;-81
2023/05/26 09:02:01;;;;;;;;;;;;;;;24.64;nan;102710.47;5046610;28;19916;-80
2023/05/26 09:04:26;;;;;;;;;;;;;;;24.64;nan;102703.06;5047820;28;20377;-81
2023/05/26 09:06:51;;;;;;;;;;;;;;;24.68;nan;102704.06;5048312;28;19972;-81
2023/05/26 09:09:17;;;;;;;;;;;;;;;24.85;nan;102709.03;5048945;28;20362;-80
2023/05/26 09:11:43;;;;;;;;;;;;;;;25.00;nan;102711.59;5044598;28;19952;-81
2023/05/26 09:14:11;;;;;;;;;;;;;;;25.22;nan;102726.59;5048506;28;19921;-81
2023/05/26 09:16:37;;;;;;;;;;;;;;;25.40;nan;102724.91;5048279;28;20052;-81
2023/05/26 09:19:03;;;;;;;;;;;;;;;25.36;nan;102724.72;5046696;28;19967;-80
2023/05/26 09:21:29;;;;;;;;;;;;;;;25.32;nan;102726.44;5047663;28;19951;-80
2023/05/26 09:23:55;;;;;;;;;;;;;;;25.34;nan;102737.09;5047229;28;19935;-80
2023/05/26 09:26:33;;;;;;;;;;;;;;;25.42;nan;102720.75;5048323;28;19923;-80
2023/05/26 09:29:00;;;;;;;;;;;;;;;25.66;nan;102728.00;5047153;28;19920;-81
2023/05/26 09:31:25;;;;;;;;;;;;;;;25.78;nan;102729.19;5045653;28;20242;-81
2023/05/26 09:33:52;;;;;;;;;;;;;;;25.89;nan;102727.88;5044921;28;19999;-80
2023/05/26 09:36:21;;;;;;;;;;;;;;;26.06;nan;102726.47;5047219;28;19920;-81
2023/05/26 09:38:47;;;;;;;;;;;;;;;26.02;nan;102726.25;5046868;28;19917;-81
2023/05/26 09:41:17;;;;;;;;;;;;;;;26.05;nan;102728.41;5045612;28;19916;-81
2023/05/26 09:43:42;;;;;;;;;;;;;;;26.05;nan;102725.66;5046802;28;19917;-81
2023/05/26 09:46:19;;;;;;;;;;;;;;;26.14;nan;102734.81;5045425;28;19916;-81
2023/05/26 09:48:48;;;;;;;;;;;;;;;26.17;nan;102728.69;5046100;28;19921;-80
2023/05/26 09:51:16;;;;;;;;;;;;;;;26.33;nan;102731.13;5045667;28;20452;-79
2023/05/26 09:53:41;;;;;;;;;;;;;;;26.55;nan;102728.47;5047263;28;19917;-81
2023/05/26 09:56:07;;;;;;;;;;;;;;;26.76;nan;102724.16;5045726;28;19921;-81
2023/05/26 09:58:38;;;;;;;;;;;;;;;26.92;nan;102721.84;5047735;28;19920;-81
2023/05/26 10:01:05;;;;;;;;;;;;;;;27.03;nan;102723.25;5042661;28;19923;-80
2023/05/26 10:03:31;;;;;;;;;;;;;;;27.12;nan;102726.09;5047039;28;19937;-81
2023/05/26 10:05:57;;;;;;;;;;;;;;;27.10;nan;102728.31;5047151;28;19917;-82
2023/05/26 10:08:23;;;;;;;;;;;;;;;27.06;nan;102716.31;5047694;28;19929;-81
2023/05/26 10:10:49;;;;;;;;;;;;;;;27.14;nan;102715.59;5045283;28;19921;-81
2023/05/26 10:13:16;;;;;;;;;;;;;;;27.19;nan;102720.13;5047550;28;19916;-80
2023/05/26 10:15:42;;;;;;;;;;;;;;;27.30;nan;102716.00;5046341;28;19927;-81
2023/05/26 10:18:08;;;;;;;;;;;;;;;27.43;nan;102703.28;5046720;28;19956;-82
2023/05/26 10:20:34;;;;;;;;;;;;;;;27.62;nan;102712.13;5045357;28;19967;-81
2023/05/26 10:22:59;;;;;;;;;;;;;;;27.80;nan;102713.03;5047636;28;19921;-80
2023/05/26 10:25:25;;;;;;;;;;;;;;;27.83;nan;102707.72;5045899;28;20383;-81
2023/05/26 10:28:02;;;;;;;;;;;;;;;27.94;nan;102699.97;5047265;28;20385;-81
2023/05/26 10:30:28;;;;;;;;;;;;;;;28.08;nan;102702.63;5046650;28;20011;-81
2023/05/26 10:32:55;;;;;;;;;;;;;;;28.17;nan;102703.44;5046587;28;20295;-82
2023/05/26 10:35:27;;;;;;;;;;;;;;;28.24;nan;102696.34;5047575;28;19986;-82
2023/05/26 10:37:54;;;;;;;;;;;;;;;27.94;nan;102702.72;5046285;28;19943;-82
2023/05/26 10:40:31;;;;;;;;;;;;;;;28.02;nan;102709.41;5046202;28;19921;-80
2023/05/26 10:43:11;;;;;;;;;;;;;;;28.13;nan;102705.22;5045403;28;19928;-80
2023/05/26 10:45:42;;;;;;;;;;;;;;;28.30;nan;102699.78;5045921;28;19923;-81
2023/05/26 10:48:11;;;;;;;;;;;;;;;28.48;nan;102704.19;5046251;28;20018;-81
2023/05/26 10:50:54;;;;;;;;;;;;;;;28.70;nan;102716.19;5045463;28;19962;-81
2023/05/26 10:53:23;;;;;;;;;;;;;;;28.80;nan;102699.31;5046477;28;20357;-81
2023/05/26 10:55:53;;;;;;;;;;;;;;;28.93;nan;102706.66;5046171;28;20404;-80
2023/05/26 10:58:28;;;;;;;;;;;;;;;29.06;nan;102710.34;5043731;28;19967;-82
2023/05/26 11:01:11;;;;;;;;;;;;;;;29.06;nan;102713.94;5044058;28;19934;-82
2023/05/26 11:03:41;;;;;;;;;;;;;;;29.08;nan;102710.84;5046069;28;19971;-81
2023/05/26 11:06:07;;;;;;;;;;;;;;;29.04;nan;102718.97;5044049;28;19982;-82
2023/05/26 11:08:59;;;;;;;;;;;;;;;29.07;nan;102707.25;5061044;28;19921;-80
2023/05/26 11:11:28;;;;;;;;;;;;;;;29.11;nan;102712.97;5041354;28;20425;-81
2023/05/26 11:14:06;;;;;;;;;;;;;;;29.19;nan;102707.41;5045817;28;19924;-81
2023/05/26 11:16:35;;;;;;;;;;;;;;;29.29;nan;102705.47;5046050;28;19917;-81
2023/05/26 11:19:02;;;;;;;;;;;;;;;29.33;nan;102714.72;5046774;28;19924;-83
2023/05/26 11:21:28;;;;;;;;;;;;;;;29.29;nan;102702.72;5045013;28;19932;-80
2023/05/26 11:23:54;;;;;;;;;;;;;;;29.34;nan;102699.75;5046056;28;20312;-81
2023/05/26 11:26:21;;;;;;;;;;;;;;;29.42;nan;102702.47;5045983;28;20013;-82
2023/05/26 11:28:46;;;;;;;;;;;;;;;29.52;nan;102709.66;5046988;28;19927;-82
2023/05/26 11:31:16;;;;;;;;;;;;;;;29.56;nan;102702.31;5044583;28;19921;-81
2023/05/26 11:33:42;;;;;;;;;;;;;;;29.59;nan;102698.88;5043516;28;20439;-81
2023/05/26 11:36:11;;;;;;;;;;;;;;;29.66;nan;102696.44;5045588;28;20499;-81
2023/05/26 11:38:37;;;;;;;;;;;;;;;29.70;nan;102704.88;5043417;28;19921;-82
2023/05/26 11:41:09;;;;;;;;;;;;;;;29.78;nan;102698.47;5045464;28;19917;-81
2023/05/26 11:43:35;;;;;;;;;;;;;;;29.86;nan;102688.53;5043428;28;19916;-80
2023/05/26 11:46:02;;;;;;;;;;;;;;;29.93;nan;102694.34;5043649;28;20307;-81
2023/05/26 11:48:46;;;;;;;;;;;;;;;29.98;nan;102697.75;5045121;28;20368;-82
2023/05/26 11:51:17;;;;;;;;;;;;;;;29.99;nan;102693.84;5044076;28;19921;-82
2023/05/26 11:53:45;;;;;;;;;;;;;;;29.99;nan;102680.03;5044353;28;19975;-82
2023/05/26 11:56:14;;;;;;;;;;;;;;;30.03;nan;102688.44;5045893;28;20348;-81
2023/05/26 11:58:42;;;;;;;;;;;;;;;29.82;nan;102691.16;5044325;28;19928;-81
2023/05/26 12:01:08;;;;;;;;;;;;;;;29.72;nan;102686.00;5045151;28;19917;-81
2023/05/26 12:03:40;;;;;;;;;;;;;;;29.82;nan;102693.94;5044825;28;19921;-82
2023/05/26 12:06:06;;;;;;;;;;;;;;;30.00;nan;102678.88;5044278;28;19924;-82
2023/05/26 12:08:41;;;;;;;;;;;;;;;30.20;nan;102669.03;5046095;28;19924;-81
2023/05/26 12:11:37;;;;;;;;;;;;;;;30.30;nan;102685.19;5045255;28;19917;-82
2023/05/26 12:14:02;;;;;;;;;;;;;;;30.20;nan;102682.03;5038762;28;20300;-83
2023/05/26 12:16:35;;;;;;;;;;;;;;;30.25;nan;102679.06;5048423;28;19951;-82
2023/05/26 12:19:02;;;;;;;;;;;;;;;30.41;nan;102684.81;5047051;28;19917;-82
2023/05/26 12:21:28;;;;;;;;;;;;;;;30.62;nan;102680.09;5046489;28;19924;-82
2023/05/26 12:23:55;;;;;;;;;;;;;;;30.81;nan;102685.16;5048318;28;19921;-82
2023/05/26 12:26:22;;;;;;;;;;;;;;;30.90;nan;102678.41;5047882;28;19917;-83
2023/05/26 12:29:04;;;;;;;;;;;;;;;30.92;nan;102678.88;5047779;28;19925;-83
2023/05/26 12:31:55;;;;;;;;;;;;;;;30.77;nan;102673.97;5048825;28;19974;-82
2023/05/26 12:34:21;;;;;;;;;;;;;;;30.70;nan;102681.97;5042889;28;19935;-82
2023/05/26 12:36:47;;;;;;;;;;;;;;;30.75;nan;102683.75;5048888;28;19978;-80
2023/05/26 12:39:14;;;;;;;;;;;;;;;30.80;nan;102678.81;5048311;28;19929;-81
2023/05/26 12:41:40;;;;;;;;;;;;;;;30.74;nan;102680.19;5047493;28;20003;-81
2023/05/26 12:44:06;;;;;;;;;;;;;;;30.82;nan;102684.81;5049443;28;19916;-81
2023/05/26 12:46:31;;;;;;;;;;;;;;;30.83;nan;102682.84;5048801;28;20300;-83
2023/05/26 12:48:57;;;;;;;;;;;;;;;30.86;nan;102677.44;5048335;28;19921;-82
2023/05/26 12:51:23;;;;;;;;;;;;;;;31.00;nan;102677.16;5047683;28;19925;-81
2023/05/26 12:53:48;;;;;;;;;;;;;;;31.05;nan;102671.38;5048825;28;20027;-81
2023/05/26 12:56:14;;;;;;;;;;;;;;;31.08;nan;102667.97;5047379;28;20007;-81